createdAt,value
2023-04-07T00:00:16.505Z,1.50
2023-04-07T00:01:17.106Z,1.49
2023-04-07T00:02:17.032Z,1.52
2023-04-07T00:03:16.880Z,1.52
2023-04-07T00:04:16.689Z,1.47
2023-04-07T00:05:16.490Z,1.46
2023-04-07T00:06:17.045Z,1.47
2023-04-07T00:07:16.580Z,1.47
2023-04-07T00:08:17.155Z,1.47
2023-04-07T00:09:16.727Z,1.43
2023-04-07T00:10:17.303Z,1.42
2023-04-07T00:11:16.869Z,1.43
2023-04-07T00:12:16.761Z,1.43
2023-04-07T00:13:17.316Z,1.42
2023-04-07T00:14:16.873Z,1.43
2023-04-07T00:15:16.436Z,1.43
2023-04-07T00:16:17.068Z,1.40
2023-04-07T00:17:16.677Z,1.38
2023-04-07T00:18:17.225Z,1.38
2023-04-07T00:19:16.787Z,1.38
2023-04-07T00:20:16.371Z,1.36
2023-04-07T00:21:16.906Z,1.35
2023-04-07T00:22:16.808Z,1.38
2023-04-07T00:23:16.378Z,1.39
2023-04-07T00:24:24.064Z,1.38
2023-04-07T00:25:17.022Z,1.35
2023-04-07T00:26:16.577Z,1.33
2023-04-07T00:27:17.129Z,1.29
2023-04-07T00:28:16.711Z,1.29
2023-04-07T00:29:17.325Z,1.29
2023-04-07T00:30:16.871Z,1.31
2023-04-07T00:31:16.477Z,1.28
2023-04-07T00:32:16.371Z,1.29
2023-04-07T00:33:16.965Z,1.29
2023-04-07T00:34:16.596Z,1.28
2023-04-07T00:35:17.176Z,1.28
2023-04-07T00:36:16.736Z,1.28
2023-04-07T00:37:17.301Z,1.29
2023-04-07T00:38:16.845Z,1.24
2023-04-07T00:39:16.433Z,1.21
2023-04-07T00:40:16.997Z,1.19
2023-04-07T00:41:16.542Z,1.21
2023-04-07T00:42:17.277Z,1.22
2023-04-07T00:43:16.828Z,1.22
2023-04-07T00:44:16.388Z,1.18
2023-04-07T00:45:16.949Z,1.18
2023-04-07T00:46:16.529Z,1.18
2023-04-07T00:47:17.170Z,1.21
2023-04-07T00:48:16.709Z,1.16
2023-04-07T00:49:17.316Z,1.18
2023-04-07T00:50:16.886Z,1.14
2023-04-07T00:51:16.475Z,1.11
2023-04-07T00:52:16.354Z,1.07
2023-04-07T00:53:16.963Z,1.05
2023-04-07T00:54:17.088Z,1.02
2023-04-07T00:55:16.684Z,1.01
2023-04-07T00:56:17.216Z,0.98
2023-04-07T00:57:16.786Z,0.94
2023-04-07T00:58:16.364Z,0.92
2023-04-07T00:59:16.918Z,0.90
2023-04-07T01:00:16.473Z,0.87
2023-04-07T01:01:17.095Z,0.88
2023-04-07T01:02:16.954Z,0.87
2023-04-07T01:03:16.918Z,0.88
2023-04-07T01:04:17.147Z,0.90
2023-04-07T01:05:17.080Z,0.90
2023-04-07T01:06:16.638Z,0.88
2023-04-07T01:07:17.213Z,0.90
2023-04-07T01:08:16.771Z,0.90
2023-04-07T01:09:17.404Z,0.92
2023-04-07T01:10:16.973Z,0.91
2023-04-07T01:11:16.520Z,0.92
2023-04-07T01:12:16.794Z,1.01
2023-04-07T01:13:16.319Z,1.01
2023-04-07T01:14:16.862Z,0.99
2023-04-07T01:15:16.406Z,0.99
2023-04-07T01:16:16.980Z,0.97
2023-04-07T01:17:16.691Z,0.94
2023-04-07T01:18:17.250Z,0.91
2023-04-07T01:19:16.797Z,0.84
2023-04-07T01:20:16.398Z,0.83
2023-04-07T01:21:16.952Z,0.74
2023-04-07T01:22:16.696Z,0.74
2023-04-07T01:23:17.253Z,0.71
2023-04-07T01:24:16.804Z,0.71
2023-04-07T01:25:16.368Z,0.70
2023-04-07T01:26:16.909Z,0.69
2023-04-07T01:27:16.436Z,0.66
2023-04-07T01:28:16.971Z,0.66
2023-04-07T01:29:16.500Z,0.69
2023-04-07T01:30:17.081Z,0.70
2023-04-07T01:31:16.674Z,0.70
2023-04-07T01:32:16.693Z,0.73
2023-04-07T01:33:17.255Z,0.71
2023-04-07T01:34:16.825Z,0.67
2023-04-07T01:35:16.377Z,0.64
2023-04-07T01:36:16.945Z,0.66
2023-04-07T01:37:16.675Z,0.73
2023-04-07T01:38:17.295Z,0.77
2023-04-07T01:39:16.832Z,0.79
2023-04-07T01:40:16.377Z,0.76
2023-04-07T01:41:16.918Z,0.66
2023-04-07T01:42:16.645Z,0.62
2023-04-07T01:43:17.253Z,0.60
2023-04-07T01:44:16.819Z,0.51
2023-04-07T01:45:16.395Z,0.49
2023-04-07T01:46:16.988Z,0.51
2023-04-07T01:47:16.598Z,0.43
2023-04-07T01:48:17.293Z,0.49
2023-04-07T01:49:16.890Z,0.51
2023-04-07T01:50:16.470Z,0.51
2023-04-07T01:51:17.032Z,0.55
2023-04-07T01:52:17.260Z,0.57
2023-04-07T01:53:16.824Z,0.60
2023-04-07T01:54:16.355Z,0.59
2023-04-07T01:55:16.927Z,0.57
2023-04-07T01:56:16.516Z,0.55
2023-04-07T01:57:17.110Z,0.56
2023-04-07T01:58:16.661Z,0.59
2023-04-07T01:59:17.213Z,0.62
2023-04-07T02:00:16.797Z,0.67
2023-04-07T02:01:16.403Z,0.67
2023-04-07T02:02:17.209Z,0.66
2023-04-07T02:03:17.126Z,0.64
2023-04-07T02:04:16.923Z,0.63
2023-04-07T02:05:16.520Z,0.66
2023-04-07T02:06:17.056Z,0.70
2023-04-07T02:07:16.644Z,0.70
2023-04-07T02:08:17.212Z,0.74
2023-04-07T02:09:16.759Z,0.76
2023-04-07T02:10:17.311Z,0.76
2023-04-07T02:11:16.878Z,0.74
2023-04-07T02:12:16.534Z,0.77
2023-04-07T02:13:17.091Z,0.77
2023-04-07T02:14:16.917Z,0.79
2023-04-07T02:15:16.502Z,0.81
2023-04-07T02:16:17.154Z,0.80
2023-04-07T02:17:16.746Z,0.77
2023-04-07T02:18:16.309Z,0.80
2023-04-07T02:19:16.885Z,0.87
2023-04-07T02:20:16.456Z,0.91
2023-04-07T02:21:17.004Z,0.94
2023-04-07T02:22:16.932Z,0.92
2023-04-07T02:23:16.456Z,0.92
2023-04-07T02:24:16.988Z,0.92
2023-04-07T02:25:16.517Z,0.83
2023-04-07T02:26:17.092Z,0.77
2023-04-07T02:27:16.666Z,0.69
2023-04-07T02:28:17.206Z,0.63
2023-04-07T02:29:16.802Z,0.59
2023-04-07T02:30:16.389Z,0.59
2023-04-07T02:31:16.976Z,0.66
2023-04-07T02:32:16.653Z,0.73
2023-04-07T02:33:17.231Z,0.70
2023-04-07T02:34:16.756Z,0.76
2023-04-07T02:35:17.324Z,0.79
2023-04-07T02:36:16.883Z,0.83
2023-04-07T02:37:16.441Z,0.77
2023-04-07T02:38:16.965Z,0.70
2023-04-07T02:39:16.545Z,0.71
2023-04-07T02:40:17.085Z,0.67
2023-04-07T02:41:16.663Z,0.64
2023-04-07T02:42:16.563Z,0.56
2023-04-07T02:43:17.127Z,0.56
2023-04-07T02:44:16.688Z,0.52
2023-04-07T02:45:17.264Z,0.48
2023-04-07T02:46:16.872Z,0.46
2023-04-07T02:47:16.484Z,0.48
2023-04-07T02:48:17.019Z,0.41
2023-04-07T02:49:16.559Z,0.42
2023-04-07T02:50:17.105Z,0.42
2023-04-07T02:51:16.664Z,0.41
2023-04-07T02:52:17.198Z,0.39
2023-04-07T02:53:16.770Z,0.39
2023-04-07T02:54:16.348Z,0.36
2023-04-07T02:55:16.933Z,0.36
2023-04-07T02:56:16.511Z,0.36
2023-04-07T02:57:17.077Z,0.32
2023-04-07T02:58:16.654Z,0.39
2023-04-07T02:59:17.226Z,0.38
2023-04-07T03:00:16.819Z,0.38
2023-04-07T03:01:16.398Z,0.42
2023-04-07T03:02:16.717Z,0.46
2023-04-07T03:03:16.640Z,0.53
2023-04-07T03:04:16.556Z,0.63
2023-04-07T03:05:16.366Z,0.71
2023-04-07T03:06:16.960Z,0.80
2023-04-07T03:07:16.542Z,0.80
2023-04-07T03:08:17.077Z,0.81
2023-04-07T03:09:16.637Z,0.83
2023-04-07T03:10:17.193Z,0.79
2023-04-07T03:11:16.832Z,0.74
2023-04-07T03:12:16.640Z,0.76
2023-04-07T03:13:17.191Z,0.76
2023-04-07T03:14:16.748Z,0.77
2023-04-07T03:15:18.835Z,0.73
2023-04-07T03:16:16.746Z,0.70
2023-04-07T03:17:16.368Z,0.67
2023-04-07T03:18:16.944Z,0.69
2023-04-07T03:19:16.506Z,0.63
2023-04-07T03:20:17.116Z,0.59
2023-04-07T03:21:16.743Z,0.55
2023-04-07T03:22:17.286Z,0.57
2023-04-07T03:23:16.836Z,0.60
2023-04-07T03:24:16.390Z,0.60
2023-04-07T03:25:16.934Z,0.62
2023-04-07T03:26:16.498Z,0.63
2023-04-07T03:27:17.051Z,0.63
2023-04-07T03:28:16.627Z,0.66
2023-04-07T03:29:17.179Z,0.67
2023-04-07T03:30:16.755Z,0.63
2023-04-07T03:31:16.377Z,0.67
2023-04-07T03:32:17.039Z,0.66
2023-04-07T03:33:16.618Z,0.69
2023-04-07T03:34:17.159Z,0.73
2023-04-07T03:35:16.713Z,0.71
2023-04-07T03:36:17.288Z,0.77
2023-04-07T03:37:16.970Z,0.77
2023-04-07T03:38:16.526Z,0.79
2023-04-07T03:39:17.086Z,0.83
2023-04-07T03:40:16.662Z,0.79
2023-04-07T03:41:17.263Z,0.79
2023-04-07T03:42:17.284Z,0.79
2023-04-07T03:43:16.876Z,0.77
2023-04-07T03:44:16.460Z,0.77
2023-04-07T03:45:17.001Z,0.79
2023-04-07T03:46:16.587Z,0.80
2023-04-07T03:47:17.176Z,0.80
2023-04-07T03:48:16.735Z,0.83
2023-04-07T03:49:17.317Z,0.87
2023-04-07T03:50:16.880Z,0.90
2023-04-07T03:51:16.434Z,0.94
2023-04-07T03:52:16.873Z,0.92
2023-04-07T03:53:16.407Z,0.92
2023-04-07T03:54:17.030Z,0.92
2023-04-07T03:55:16.598Z,0.97
2023-04-07T03:56:17.156Z,0.98
2023-04-07T03:57:16.761Z,0.97
2023-04-07T03:58:17.295Z,0.98
2023-04-07T03:59:16.851Z,0.99
2023-04-07T04:00:16.416Z,0.97
2023-04-07T04:01:16.977Z,0.99
2023-04-07T04:02:16.805Z,1.02
2023-04-07T04:03:16.635Z,1.07
2023-04-07T04:04:16.646Z,1.07
2023-04-07T04:05:16.869Z,0.88
2023-04-07T04:06:16.414Z,0.76
2023-04-07T04:07:16.977Z,0.70
2023-04-07T04:08:16.536Z,0.73
2023-04-07T04:09:17.103Z,0.80
2023-04-07T04:10:16.647Z,0.83
2023-04-07T04:11:17.179Z,0.87
2023-04-07T04:12:17.176Z,0.76
2023-04-07T04:13:16.771Z,0.74
2023-04-07T04:14:17.346Z,0.76
2023-04-07T04:15:16.932Z,0.84
2023-04-07T04:16:16.494Z,0.83
2023-04-07T04:17:17.101Z,0.81
2023-04-07T04:18:16.673Z,0.83
2023-04-07T04:19:17.232Z,0.81
2023-04-07T04:20:16.812Z,0.83
2023-04-07T04:21:16.383Z,0.81
2023-04-07T04:22:17.080Z,0.77
2023-04-07T04:23:16.650Z,0.77
2023-04-07T04:24:17.215Z,0.80
2023-04-07T04:25:16.770Z,0.76
2023-04-07T04:26:17.316Z,0.76
2023-04-07T04:27:16.880Z,0.70
2023-04-07T04:28:16.429Z,0.69
2023-04-07T04:29:16.954Z,0.63
2023-04-07T04:30:16.504Z,0.64
2023-04-07T04:31:17.103Z,0.64
2023-04-07T04:32:16.526Z,0.59
2023-04-07T04:33:16.515Z,0.57
2023-04-07T04:34:17.076Z,0.57
2023-04-07T04:35:16.644Z,0.69
2023-04-07T04:36:17.209Z,0.64
2023-04-07T04:37:16.876Z,0.67
2023-04-07T04:38:16.406Z,0.66
2023-04-07T04:39:16.951Z,0.66
2023-04-07T04:40:16.502Z,0.71
2023-04-07T04:41:17.043Z,0.74
2023-04-07T04:42:16.661Z,0.76
2023-04-07T04:43:17.250Z,0.80
2023-04-07T04:44:16.796Z,0.80
2023-04-07T04:45:16.349Z,0.81
2023-04-07T04:46:16.897Z,0.84
2023-04-07T04:47:16.505Z,0.87
2023-04-07T04:48:17.180Z,0.87
2023-04-07T04:49:16.736Z,0.91
2023-04-07T04:50:17.309Z,0.91
2023-04-07T04:51:16.856Z,0.91
2023-04-07T04:52:16.836Z,0.85
2023-04-07T04:53:16.411Z,0.91
2023-04-07T04:54:16.977Z,0.92
2023-04-07T04:55:16.545Z,0.98
2023-04-07T04:56:17.107Z,1.04
2023-04-07T04:57:16.679Z,1.12
2023-04-07T04:58:17.231Z,1.14
2023-04-07T04:59:16.784Z,1.12
2023-04-07T05:00:16.355Z,1.16
2023-04-07T05:01:16.955Z,1.19
2023-04-07T05:02:17.321Z,1.22
2023-04-07T05:03:17.327Z,1.22
2023-04-07T05:04:16.454Z,1.28
2023-04-07T05:05:16.608Z,1.38
2023-04-07T05:06:17.294Z,1.45
2023-04-07T05:07:16.848Z,1.52
2023-04-07T05:08:16.428Z,1.53
2023-04-07T05:09:16.980Z,1.50
2023-04-07T05:10:16.524Z,1.56
2023-04-07T05:11:17.084Z,1.56
2023-04-07T05:12:16.997Z,1.73
2023-04-07T05:13:16.571Z,1.74
2023-04-07T05:14:17.131Z,1.84
2023-04-07T05:15:16.690Z,1.88
2023-04-07T05:16:17.288Z,2.02
2023-04-07T05:17:16.885Z,2.08
2023-04-07T05:18:16.467Z,2.12
2023-04-07T05:19:17.017Z,2.22
2023-04-07T05:20:16.569Z,2.34
2023-04-07T05:21:17.127Z,2.39
2023-04-07T05:22:16.775Z,2.53
2023-04-07T05:23:16.320Z,2.53
2023-04-07T05:24:16.908Z,2.37
2023-04-07T05:25:16.463Z,2.42
2023-04-07T05:26:17.039Z,2.64
2023-04-07T05:27:16.597Z,2.96
2023-04-07T05:28:17.189Z,2.99
2023-04-07T05:29:16.760Z,2.96
2023-04-07T05:30:17.332Z,2.99
2023-04-07T05:31:16.936Z,2.98
2023-04-07T05:32:16.918Z,3.00
2023-04-07T05:33:16.462Z,3.22
2023-04-07T05:34:17.000Z,3.36
2023-04-07T05:35:16.530Z,3.15
2023-04-07T05:36:17.131Z,3.10
2023-04-07T05:37:16.700Z,3.03
2023-04-07T05:38:17.253Z,2.96
2023-04-07T05:39:16.830Z,3.07
2023-04-07T05:40:16.384Z,2.85
2023-04-07T05:41:16.957Z,2.79
2023-04-07T05:42:16.781Z,2.84
2023-04-07T05:43:16.356Z,3.12
2023-04-07T05:44:16.942Z,3.33
2023-04-07T05:45:16.509Z,3.39
2023-04-07T05:46:17.115Z,3.46
2023-04-07T05:47:16.819Z,3.43
2023-04-07T05:48:16.374Z,3.41
2023-04-07T05:49:19.858Z,3.55
2023-04-07T05:50:17.301Z,3.54
2023-04-07T05:51:16.840Z,3.65
2023-04-07T05:52:16.882Z,3.75
2023-04-07T05:53:16.468Z,3.71
2023-04-07T05:54:17.080Z,3.50
2023-04-07T05:55:16.634Z,3.44
2023-04-07T05:56:17.181Z,3.40
2023-04-07T05:57:16.742Z,3.46
2023-04-07T05:58:17.284Z,3.60
2023-04-07T05:59:16.848Z,3.65
2023-04-07T06:00:16.411Z,3.88
2023-04-07T06:01:16.940Z,3.95
2023-04-07T06:02:16.591Z,3.93
2023-04-07T06:03:16.474Z,3.89
2023-04-07T06:04:16.352Z,3.89
2023-04-07T06:05:16.915Z,3.95
2023-04-07T06:06:16.647Z,4.09
2023-04-07T06:07:17.198Z,4.21
2023-04-07T06:08:16.750Z,4.37
2023-04-07T06:09:16.330Z,4.73
2023-04-07T06:10:16.880Z,4.96
2023-04-07T06:11:16.420Z,5.02
2023-04-07T06:12:17.142Z,4.93
2023-04-07T06:13:16.712Z,4.64
2023-04-07T06:14:17.265Z,4.93
2023-04-07T06:15:16.819Z,5.11
2023-04-07T06:16:17.428Z,5.15
2023-04-07T06:17:17.152Z,5.27
2023-04-07T06:18:16.697Z,5.49
2023-04-07T06:19:17.264Z,5.23
2023-04-07T06:20:16.841Z,5.11
2023-04-07T06:21:16.514Z,5.28
2023-04-07T06:22:17.302Z,5.66
2023-04-07T06:23:16.841Z,5.75
2023-04-07T06:24:16.425Z,5.82
2023-04-07T06:25:16.943Z,5.92
2023-04-07T06:26:16.505Z,5.94
2023-04-07T06:27:17.109Z,5.70
2023-04-07T06:28:16.651Z,5.76
2023-04-07T06:29:17.485Z,5.62
2023-04-07T06:30:17.038Z,5.77
2023-04-07T06:32:17.095Z,6.72
2023-04-07T06:33:16.671Z,6.83
2023-04-07T06:34:17.233Z,6.73
2023-04-07T06:35:16.815Z,6.91
2023-04-07T06:36:16.365Z,7.04
2023-04-07T06:37:17.031Z,7.54
2023-04-07T06:38:16.760Z,7.84
2023-04-07T06:39:17.314Z,8.28
2023-04-07T06:40:16.872Z,8.23
2023-04-07T06:41:16.447Z,8.00
2023-04-07T06:42:16.467Z,8.50
2023-04-07T06:43:16.980Z,8.95
2023-04-07T06:44:16.530Z,9.20
2023-04-07T06:45:17.119Z,8.78
2023-04-07T06:46:16.699Z,9.23
2023-04-07T06:47:17.305Z,9.61
2023-04-07T06:48:16.882Z,9.15
2023-04-07T06:49:16.436Z,9.15
2023-04-07T06:50:16.974Z,9.47
2023-04-07T06:51:16.549Z,9.62
2023-04-07T06:52:17.295Z,9.34
2023-04-07T06:53:16.858Z,9.53
2023-04-07T06:54:16.426Z,9.68
2023-04-07T06:55:16.978Z,9.50
2023-04-07T06:56:16.521Z,9.71
2023-04-07T06:57:17.124Z,10.09
2023-04-07T06:58:16.865Z,10.12
2023-04-07T06:59:16.692Z,10.20
2023-04-07T07:00:17.280Z,10.06
2023-04-07T07:01:16.851Z,10.06
2023-04-07T07:02:16.726Z,10.83
2023-04-07T07:03:16.769Z,11.40
2023-04-07T07:04:16.815Z,11.65
2023-04-07T07:05:16.726Z,11.93
2023-04-07T07:06:17.308Z,12.00
2023-04-07T07:07:16.859Z,11.92
2023-04-07T07:08:16.405Z,11.90
2023-04-07T07:09:16.940Z,12.27
2023-04-07T07:10:16.508Z,12.69
2023-04-07T07:11:17.074Z,12.20
2023-04-07T07:12:16.865Z,12.28
2023-04-07T07:13:16.422Z,12.93
2023-04-07T07:14:16.974Z,12.79
2023-04-07T07:15:16.513Z,13.11
2023-04-07T07:16:17.160Z,13.43
2023-04-07T07:17:16.818Z,12.72
2023-04-07T07:18:16.389Z,11.47
2023-04-07T07:19:16.919Z,10.64
2023-04-07T07:20:16.462Z,11.16
2023-04-07T07:21:17.017Z,11.78
2023-04-07T07:22:16.991Z,11.75
2023-04-07T07:23:16.520Z,10.28
2023-04-07T07:24:17.054Z,10.65
2023-04-07T07:25:16.578Z,11.03
2023-04-07T07:26:17.143Z,11.50
2023-04-07T07:27:16.719Z,11.89
2023-04-07T07:28:17.277Z,12.56
2023-04-07T07:29:17.008Z,12.93
2023-04-07T07:30:16.667Z,13.18
2023-04-07T07:31:17.297Z,13.70
2023-04-07T07:32:16.561Z,14.08
2023-04-07T07:33:17.143Z,14.18
2023-04-07T07:34:16.670Z,14.46
2023-04-07T07:35:17.220Z,13.97
2023-04-07T07:36:16.810Z,12.90
2023-04-07T07:37:16.427Z,12.69
2023-04-07T07:38:16.986Z,12.51
2023-04-07T07:39:16.534Z,12.10
2023-04-07T07:40:17.143Z,12.12
2023-04-07T07:41:16.695Z,12.53
2023-04-07T07:42:17.159Z,13.10
2023-04-07T07:43:16.722Z,13.35
2023-04-07T07:44:17.278Z,13.76
2023-04-07T07:45:16.890Z,13.76
2023-04-07T07:46:16.428Z,13.39
2023-04-07T07:47:17.082Z,13.46
2023-04-07T07:48:16.638Z,13.82
2023-04-07T07:49:17.171Z,14.14
2023-04-07T07:50:16.744Z,14.51
2023-04-07T07:51:17.296Z,14.93
2023-04-07T07:52:16.980Z,15.15
2023-04-07T07:53:16.511Z,15.38
2023-04-07T07:54:17.089Z,13.67
2023-04-07T07:55:16.630Z,13.08
2023-04-07T07:56:17.209Z,13.08
2023-04-07T07:57:16.760Z,13.07
2023-04-07T07:58:17.318Z,14.20
2023-04-07T07:59:17.882Z,14.67
2023-04-07T08:00:16.518Z,15.08
2023-04-07T08:01:17.094Z,15.17
2023-04-07T08:02:16.895Z,15.55
2023-04-07T08:03:16.680Z,16.02
2023-04-07T08:04:16.468Z,16.52
2023-04-07T08:05:17.128Z,16.04
2023-04-07T08:06:16.666Z,15.95
2023-04-07T08:07:17.239Z,16.15
2023-04-07T08:08:16.771Z,16.21
2023-04-07T08:09:16.318Z,16.12
2023-04-07T08:10:16.917Z,16.12
2023-04-07T08:11:16.466Z,15.85
2023-04-07T08:12:16.900Z,15.97
2023-04-07T08:13:16.461Z,15.78
2023-04-07T08:14:17.007Z,16.09
2023-04-07T08:15:16.571Z,15.77
2023-04-07T08:16:17.202Z,14.56
2023-04-07T08:17:16.895Z,15.50
2023-04-07T08:18:16.439Z,15.77
2023-04-07T08:19:16.999Z,15.34
2023-04-07T08:20:16.540Z,15.32
2023-04-07T08:21:17.080Z,14.83
2023-04-07T08:22:16.870Z,15.23
2023-04-07T08:23:16.422Z,15.77
2023-04-07T08:24:17.021Z,15.90
2023-04-07T08:25:16.611Z,15.77
2023-04-07T08:26:17.194Z,15.27
2023-04-07T08:27:16.739Z,16.07
2023-04-07T08:28:17.290Z,16.40
2023-04-07T08:29:16.831Z,16.84
2023-04-07T08:30:16.403Z,16.78
2023-04-07T08:31:16.948Z,16.88
2023-04-07T08:32:16.731Z,17.05
2023-04-07T08:33:17.283Z,17.52
2023-04-07T08:34:16.864Z,17.77
2023-04-07T08:35:16.468Z,17.47
2023-04-07T08:36:17.077Z,17.64
2023-04-07T08:37:16.718Z,16.42
2023-04-07T08:38:17.258Z,16.66
2023-04-07T08:39:16.816Z,16.59
2023-04-07T08:40:16.364Z,16.21
2023-04-07T08:41:16.918Z,16.74
2023-04-07T08:42:16.666Z,16.56
2023-04-07T08:43:17.216Z,15.46
2023-04-07T08:44:16.737Z,15.64
2023-04-07T08:45:17.366Z,14.70
2023-04-07T08:46:16.936Z,14.72
2023-04-07T08:47:16.687Z,14.65
2023-04-07T08:48:17.277Z,15.47
2023-04-07T08:49:16.851Z,15.83
2023-04-07T08:50:16.456Z,15.67
2023-04-07T08:51:17.025Z,15.60
2023-04-07T08:52:17.176Z,15.91
2023-04-07T08:53:16.742Z,15.92
2023-04-07T08:54:17.325Z,14.87
2023-04-07T08:55:16.893Z,13.84
2023-04-07T08:56:16.452Z,14.36
2023-04-07T08:57:16.982Z,14.73
2023-04-07T08:58:16.524Z,15.12
2023-04-07T08:59:17.056Z,14.48
2023-04-07T09:00:16.611Z,14.32
2023-04-07T09:01:17.213Z,14.11
2023-04-07T09:02:17.133Z,14.70
2023-04-07T09:03:16.768Z,14.88
2023-04-07T09:04:16.580Z,14.52
2023-04-07T09:05:17.239Z,14.18
2023-04-07T09:06:16.857Z,14.86
2023-04-07T09:07:16.426Z,15.10
2023-04-07T09:08:17.008Z,15.28
2023-04-07T09:09:16.570Z,15.41
2023-04-07T09:10:17.128Z,15.60
2023-04-07T09:11:16.666Z,15.77
2023-04-07T09:12:17.248Z,15.85
2023-04-07T09:13:16.781Z,16.07
2023-04-07T09:14:16.316Z,16.37
2023-04-07T09:15:16.890Z,16.29
2023-04-07T09:16:16.483Z,16.02
2023-04-07T09:17:17.105Z,15.84
2023-04-07T09:18:16.647Z,15.64
2023-04-07T09:19:17.225Z,15.08
2023-04-07T09:20:16.800Z,15.17
2023-04-07T09:21:16.353Z,15.80
2023-04-07T09:22:17.091Z,16.36
2023-04-07T09:23:16.652Z,16.24
2023-04-07T09:24:17.191Z,16.42
2023-04-07T09:25:16.768Z,16.40
2023-04-07T09:26:16.425Z,16.64
2023-04-07T09:27:17.459Z,16.60
2023-04-07T09:28:17.193Z,16.98
2023-04-07T09:29:16.781Z,16.53
2023-04-07T09:30:16.379Z,16.24
2023-04-07T09:31:16.978Z,15.72
2023-04-07T09:32:16.815Z,15.39
2023-04-07T09:33:16.396Z,16.02
2023-04-07T09:34:16.960Z,14.80
2023-04-07T09:35:16.509Z,15.63
2023-04-07T09:36:17.134Z,16.19
2023-04-07T09:37:16.785Z,17.09
2023-04-07T09:38:16.350Z,17.81
2023-04-07T09:39:16.909Z,18.19
2023-04-07T09:40:16.505Z,17.77
2023-04-07T09:41:17.176Z,17.61
2023-04-07T09:42:16.904Z,17.69
2023-04-07T09:43:16.477Z,18.01
2023-04-07T09:44:17.067Z,18.06
2023-04-07T09:45:23.959Z,17.97
2023-04-07T09:46:16.661Z,18.17
2023-04-07T09:47:17.278Z,18.66
2023-04-07T09:48:16.815Z,18.29
2023-04-07T09:49:16.362Z,18.74
2023-04-07T09:50:16.938Z,19.16
2023-04-07T09:51:16.543Z,19.60
2023-04-07T09:52:16.807Z,19.09
2023-04-07T09:53:16.448Z,18.17
2023-04-07T09:54:17.021Z,19.07
2023-04-07T09:55:16.637Z,19.01
2023-04-07T09:56:17.251Z,19.06
2023-04-07T09:57:16.818Z,20.05
2023-04-07T09:58:16.355Z,20.64
2023-04-07T09:59:17.017Z,21.41
2023-04-07T10:00:16.547Z,21.66
2023-04-07T10:01:17.137Z,20.52
2023-04-07T10:02:17.092Z,20.79
2023-04-07T10:03:16.853Z,20.98
2023-04-07T10:04:16.477Z,21.07
2023-04-07T10:05:17.144Z,19.41
2023-04-07T10:06:16.885Z,19.47
2023-04-07T10:07:16.561Z,19.56
2023-04-07T10:08:17.137Z,19.62
2023-04-07T10:09:16.693Z,19.50
2023-04-07T10:10:17.245Z,19.75
2023-04-07T10:11:16.764Z,20.20
2023-04-07T10:12:16.558Z,20.72
2023-04-07T10:13:17.111Z,21.54
2023-04-07T10:14:16.657Z,21.13
2023-04-07T10:15:17.253Z,20.65
2023-04-07T10:16:16.834Z,21.11
2023-04-07T10:17:16.471Z,21.06
2023-04-07T10:18:17.026Z,21.36
2023-04-07T10:19:16.597Z,21.00
2023-04-07T10:20:17.160Z,20.76
2023-04-07T10:21:16.712Z,20.54
2023-04-07T10:22:16.324Z,20.59
2023-04-07T10:23:16.861Z,20.52
2023-04-07T10:24:16.457Z,20.08
2023-04-07T10:25:17.018Z,21.09
2023-04-07T10:26:16.571Z,21.30
2023-04-07T10:27:17.148Z,20.95
2023-04-07T10:28:16.693Z,21.33
2023-04-07T10:29:17.253Z,21.41
2023-04-07T10:30:16.810Z,21.75
2023-04-07T10:31:16.429Z,21.60
2023-04-07T10:32:17.068Z,19.44
2023-04-07T10:33:16.612Z,19.51
2023-04-07T10:34:17.187Z,20.21
2023-04-07T10:35:16.798Z,21.07
2023-04-07T10:36:16.440Z,21.00
2023-04-07T10:37:16.981Z,21.06
2023-04-07T10:38:16.639Z,21.45
2023-04-07T10:39:16.357Z,21.68
2023-04-07T10:40:16.912Z,22.16
2023-04-07T10:41:16.455Z,20.71
2023-04-07T10:42:16.454Z,20.62
2023-04-07T10:43:17.021Z,21.29
2023-04-07T10:44:16.559Z,21.34
2023-04-07T10:45:17.131Z,21.37
2023-04-07T10:46:16.758Z,22.03
2023-04-07T10:47:16.439Z,22.54
2023-04-07T10:48:16.999Z,22.26
2023-04-07T10:49:18.519Z,21.23
2023-04-07T10:50:16.679Z,20.15
2023-04-07T10:51:17.239Z,18.16
2023-04-07T10:52:17.111Z,18.09
2023-04-07T10:53:16.660Z,18.02
2023-04-07T10:54:17.208Z,16.90
2023-04-07T10:55:16.794Z,17.23
2023-04-07T10:56:16.346Z,17.73
2023-04-07T10:57:16.896Z,17.66
2023-04-07T10:58:16.624Z,17.80
2023-04-07T10:59:17.203Z,17.98
2023-04-07T11:00:16.837Z,18.13
2023-04-07T11:01:16.575Z,18.26
2023-04-07T11:02:16.955Z,18.92
2023-04-07T11:03:16.830Z,19.03
2023-04-07T11:04:16.692Z,18.23
2023-04-07T11:05:16.360Z,16.90
2023-04-07T11:06:16.906Z,16.45
2023-04-07T11:07:16.537Z,16.86
2023-04-07T11:08:17.159Z,17.21
2023-04-07T11:09:16.758Z,17.35
2023-04-07T11:10:17.363Z,17.99
2023-04-07T11:11:16.896Z,18.34
2023-04-07T11:12:17.124Z,17.74
2023-04-07T11:13:16.672Z,18.34
2023-04-07T11:14:17.221Z,18.98
2023-04-07T11:15:16.784Z,19.19
2023-04-07T11:16:16.397Z,18.49
2023-04-07T11:17:17.040Z,18.06
2023-04-07T11:18:16.591Z,18.71
2023-04-07T11:19:17.199Z,19.29
2023-04-07T11:20:16.848Z,19.81
2023-04-07T11:21:16.425Z,20.21
2023-04-07T11:22:29.133Z,20.82
2023-04-07T11:23:16.919Z,20.88
2023-04-07T11:24:16.512Z,19.19
2023-04-07T11:25:17.099Z,18.25
2023-04-07T11:26:16.652Z,18.39
2023-04-07T11:27:17.241Z,18.58
2023-04-07T11:28:16.825Z,17.85
2023-04-07T11:29:16.339Z,17.76
2023-04-07T11:30:16.910Z,18.19
2023-04-07T11:31:16.477Z,19.30
2023-04-07T11:32:16.497Z,19.43
2023-04-07T11:33:17.053Z,19.79
2023-04-07T11:34:16.631Z,19.84
2023-04-07T11:35:17.193Z,19.69
2023-04-07T11:36:16.770Z,17.85
2023-04-07T11:37:16.423Z,17.25
2023-04-07T11:38:16.995Z,17.43
2023-04-07T11:39:16.539Z,17.32
2023-04-07T11:40:17.110Z,16.68
2023-04-07T11:41:16.671Z,17.78
2023-04-07T11:42:17.252Z,18.12
2023-04-07T11:43:16.811Z,18.15
2023-04-07T11:44:16.373Z,18.46
2023-04-07T11:45:16.962Z,18.75
2023-04-07T11:46:16.625Z,18.47
2023-04-07T11:47:17.230Z,17.36
2023-04-07T11:48:16.772Z,16.91
2023-04-07T11:49:16.330Z,16.98
2023-04-07T11:50:16.902Z,16.35
2023-04-07T11:51:16.462Z,16.07
2023-04-07T11:52:17.304Z,16.02
2023-04-07T11:53:16.843Z,15.43
2023-04-07T11:54:16.409Z,15.81
2023-04-07T11:55:16.944Z,15.56
2023-04-07T11:56:16.531Z,14.80
2023-04-07T11:57:17.147Z,14.66
2023-04-07T11:58:16.733Z,14.59
2023-04-07T11:59:17.312Z,14.33
2023-04-07T12:00:16.874Z,14.42
2023-04-07T12:01:16.420Z,14.48
2023-04-07T12:02:17.224Z,14.46
2023-04-07T12:03:17.123Z,14.40
2023-04-07T12:04:16.997Z,14.08
2023-04-07T12:05:16.896Z,14.17
2023-04-07T12:06:16.528Z,14.15
2023-04-07T12:07:17.063Z,14.15
2023-04-07T12:08:16.628Z,14.31
2023-04-07T12:09:17.196Z,14.45
2023-04-07T12:10:16.797Z,14.62
2023-04-07T12:11:16.337Z,14.65
2023-04-07T12:12:17.208Z,14.74
2023-04-07T12:13:16.780Z,14.80
2023-04-07T12:14:16.331Z,14.79
2023-04-07T12:15:16.945Z,14.70
2023-04-07T12:16:16.519Z,14.32
2023-04-07T12:17:17.187Z,14.39
2023-04-07T12:19:16.820Z,14.36
2023-04-07T12:20:16.431Z,14.01
2023-04-07T12:21:17.048Z,14.07
2023-04-07T12:22:16.654Z,14.08
2023-04-07T12:23:17.240Z,13.79
2023-04-07T12:24:16.797Z,13.72
2023-04-07T12:25:16.374Z,13.60
2023-04-07T12:26:16.925Z,13.77
2023-04-07T12:27:16.506Z,13.83
2023-04-07T12:28:17.057Z,13.84
2023-04-07T12:29:16.616Z,13.89
2023-04-07T12:30:17.177Z,13.84
2023-04-07T12:31:16.710Z,13.82
2023-04-07T12:32:16.593Z,13.90
2023-04-07T12:33:17.240Z,13.80
2023-04-07T12:34:16.791Z,13.86
2023-04-07T12:35:16.368Z,13.86
2023-04-07T12:36:16.921Z,14.00
2023-04-07T12:37:16.497Z,14.04
2023-04-07T12:38:17.088Z,13.97
2023-04-07T12:39:16.684Z,13.94
2023-04-07T12:40:17.294Z,14.01
2023-04-07T12:41:16.884Z,14.12
2023-04-07T12:42:16.825Z,14.00
2023-04-07T12:43:16.371Z,14.00
2023-04-07T12:44:16.954Z,14.15
2023-04-07T12:45:16.506Z,14.27
2023-04-07T12:46:17.110Z,14.40
2023-04-07T12:47:16.750Z,14.42
2023-04-07T12:48:17.341Z,14.03
2023-04-07T12:49:16.915Z,14.18
2023-04-07T12:50:16.484Z,14.12
2023-04-07T12:51:17.033Z,14.14
2023-04-07T12:52:16.710Z,14.32
2023-04-07T12:53:16.370Z,14.42
2023-04-07T12:54:16.946Z,14.62
2023-04-07T12:55:16.509Z,14.79
2023-04-07T12:56:17.079Z,14.79
2023-04-07T12:57:16.643Z,14.74
2023-04-07T12:58:17.200Z,14.80
2023-04-07T12:59:16.761Z,14.63
2023-04-07T13:00:17.316Z,14.51
2023-04-07T13:01:17.170Z,14.63
2023-04-07T13:02:16.709Z,14.90
2023-04-07T13:03:16.795Z,15.05
2023-04-07T13:04:16.805Z,15.11
2023-04-07T13:05:16.796Z,15.08
2023-04-07T13:06:16.508Z,15.10
2023-04-07T13:07:17.279Z,14.94
2023-04-07T13:08:17.022Z,14.77